createdAt,value
2023-04-17T00:00:39.019Z,5.12
2023-04-17T00:03:07.601Z,5.08
2023-04-17T00:05:36.701Z,5.04
2023-04-17T00:08:06.410Z,5.03
2023-04-17T00:10:34.694Z,5.01
2023-04-17T00:13:04.184Z,4.98
2023-04-17T00:15:33.230Z,4.93
2023-04-17T00:18:02.710Z,4.91
2023-04-17T00:20:32.496Z,4.89
2023-04-17T00:23:01.183Z,4.87
2023-04-17T00:25:29.573Z,4.84
2023-04-17T00:27:57.939Z,4.82
2023-04-17T00:30:26.423Z,4.80
2023-04-17T00:32:55.159Z,4.76
2023-04-17T00:35:23.696Z,4.74
2023-04-17T00:37:52.180Z,4.72
2023-04-17T00:40:21.889Z,4.69
2023-04-17T00:42:53.437Z,4.66
2023-04-17T00:45:22.438Z,4.62
2023-04-17T00:47:50.922Z,4.62
2023-04-17T00:50:19.282Z,4.60
2023-04-17T00:52:47.879Z,4.60
2023-04-17T00:55:16.758Z,4.58
2023-04-17T00:57:45.646Z,4.57
2023-04-17T01:00:14.916Z,4.54
2023-04-17T01:02:43.499Z,4.54
2023-04-17T01:05:12.335Z,4.52
2023-04-17T01:07:41.618Z,4.51
2023-04-17T01:10:11.036Z,4.52
2023-04-17T01:12:39.610Z,4.54
2023-04-17T01:15:09.171Z,4.57
2023-04-17T01:17:37.554Z,4.59
2023-04-17T01:20:08.008Z,4.60
2023-04-17T01:22:36.805Z,4.58
2023-04-17T01:25:06.822Z,4.55
2023-04-17T01:27:38.102Z,4.52
2023-04-17T01:30:07.385Z,4.50
2023-04-17T01:32:43.058Z,4.46
2023-04-17T01:35:11.802Z,4.43
2023-04-17T01:37:40.397Z,4.38
2023-04-17T01:40:10.082Z,4.33
2023-04-17T01:42:38.883Z,4.28
2023-04-17T01:45:08.412Z,4.24
2023-04-17T01:47:36.798Z,4.20
2023-04-17T01:50:09.207Z,4.18
2023-04-17T01:52:40.037Z,4.21
2023-04-17T01:55:09.180Z,4.24
2023-04-17T01:57:39.445Z,4.28
2023-04-17T02:00:11.054Z,4.30
2023-04-17T02:02:45.092Z,4.28
2023-04-17T02:05:13.748Z,4.27
2023-04-17T02:07:42.949Z,4.24
2023-04-17T02:10:11.762Z,4.19
2023-04-17T02:12:40.847Z,4.16
2023-04-17T02:15:10.042Z,4.13
2023-04-17T02:17:38.546Z,4.07
2023-04-17T02:20:08.030Z,4.03
2023-04-17T02:22:37.817Z,3.99
2023-04-17T02:25:06.722Z,3.96
2023-04-17T02:27:35.493Z,3.96
2023-04-17T02:30:04.342Z,4.02
2023-04-17T02:32:34.787Z,4.07
2023-04-17T02:35:04.951Z,4.10
2023-04-17T02:37:33.470Z,4.11
2023-04-17T02:40:02.019Z,4.12
2023-04-17T02:42:31.426Z,4.10
2023-04-17T02:45:00.636Z,4.09
2023-04-17T02:47:30.028Z,4.07
2023-04-17T02:50:00.495Z,4.04
2023-04-17T02:52:29.456Z,4.02
2023-04-17T02:54:58.226Z,3.97
2023-04-17T02:57:27.307Z,3.93
2023-04-17T02:59:56.061Z,3.90
2023-04-17T03:02:24.814Z,3.89
2023-04-17T03:04:53.608Z,3.91
2023-04-17T03:07:23.889Z,3.96
2023-04-17T03:09:54.303Z,4.05
2023-04-17T03:12:22.494Z,4.18
2023-04-17T03:14:51.283Z,4.28
2023-04-17T03:17:21.061Z,4.34
2023-04-17T03:19:50.128Z,4.38
2023-04-17T03:22:18.799Z,4.44
2023-04-17T03:24:47.879Z,4.52
2023-04-17T03:27:16.780Z,4.59
2023-04-17T03:29:46.479Z,4.66
2023-04-17T03:32:16.153Z,4.72
2023-04-17T03:34:44.767Z,4.77
2023-04-17T03:37:13.454Z,4.85
2023-04-17T03:39:42.148Z,4.95
2023-04-17T03:42:14.890Z,5.06
2023-04-17T03:44:43.336Z,5.18
2023-04-17T03:47:12.730Z,5.33
2023-04-17T03:49:42.704Z,5.49
2023-04-17T03:52:13.350Z,5.72
2023-04-17T03:54:42.752Z,5.94
2023-04-17T03:57:13.373Z,6.13
2023-04-17T03:59:42.068Z,6.30
2023-04-17T04:02:11.034Z,6.45
2023-04-17T04:04:39.926Z,6.61
2023-04-17T04:07:12.648Z,6.81
2023-04-17T04:09:41.625Z,7.00
2023-04-17T04:12:10.540Z,7.13
2023-04-17T04:14:43.194Z,7.26
2023-04-17T04:17:12.416Z,7.39
2023-04-17T04:19:41.432Z,7.53
2023-04-17T04:22:10.679Z,7.71
2023-04-17T04:24:44.265Z,7.88
2023-04-17T04:27:18.826Z,8.02
2023-04-17T04:29:50.048Z,8.13
2023-04-17T04:32:21.305Z,8.19
2023-04-17T04:34:50.986Z,8.26
2023-04-17T04:37:22.548Z,8.37
2023-04-17T04:39:54.419Z,8.49
2023-04-17T04:42:23.807Z,8.66
2023-04-17T04:45:14.926Z,8.87
2023-04-17T04:47:44.277Z,9.00
2023-04-17T04:50:13.256Z,9.16
2023-04-17T04:52:42.507Z,9.38
2023-04-17T04:55:19.907Z,9.61
2023-04-17T04:57:53.641Z,9.88
2023-04-17T05:00:22.596Z,10.18
2023-04-17T05:02:54.553Z,10.57
2023-04-17T05:05:25.813Z,10.80
2023-04-17T05:07:55.411Z,10.80
2023-04-17T05:10:26.661Z,10.71
2023-04-17T05:13:00.123Z,10.65
2023-04-17T05:15:28.558Z,10.54
2023-04-17T05:17:57.399Z,10.37
2023-04-17T05:20:26.936Z,10.20
2023-04-17T05:22:58.790Z,10.05
2023-04-17T05:25:27.586Z,9.93
2023-04-17T05:27:56.729Z,9.77
2023-04-17T05:30:25.724Z,9.62
2023-04-17T05:33:01.396Z,9.51
2023-04-17T05:35:38.006Z,9.46
2023-04-17T05:38:08.183Z,9.43
2023-04-17T05:40:37.032Z,9.43
2023-04-17T05:43:10.197Z,9.40
2023-04-17T05:45:41.688Z,9.39
2023-04-17T05:48:11.143Z,9.46
2023-04-17T05:50:39.749Z,9.52
2023-04-17T05:53:09.133Z,9.61
2023-04-17T05:55:41.950Z,9.64
2023-04-17T06:00:44.513Z,9.97
2023-04-17T06:03:18.170Z,10.27
2023-04-17T06:05:48.633Z,10.61
2023-04-17T06:08:17.426Z,10.78
2023-04-17T06:10:46.166Z,10.90
2023-04-17T06:13:14.618Z,11.00
2023-04-17T06:15:46.350Z,11.05
2023-04-17T06:18:17.960Z,11.08
2023-04-17T06:20:46.588Z,11.10
2023-04-17T06:23:15.103Z,11.11
2023-04-17T06:25:43.968Z,11.08
2023-04-17T06:28:12.646Z,11.10
2023-04-17T06:30:41.630Z,11.06
2023-04-17T06:33:11.244Z,11.00
2023-04-17T06:35:41.269Z,10.93
2023-04-17T06:38:22.494Z,10.82
2023-04-17T06:40:52.828Z,10.76
2023-04-17T06:43:22.064Z,10.70
2023-04-17T06:45:50.654Z,10.66
2023-04-17T06:48:19.147Z,10.65
2023-04-17T06:50:48.542Z,10.74
2023-04-17T06:53:17.068Z,10.99
2023-04-17T06:55:45.623Z,11.37
2023-04-17T06:58:14.490Z,11.82
2023-04-17T07:00:42.982Z,12.30
2023-04-17T07:03:12.863Z,12.62
2023-04-17T07:05:42.486Z,12.94
2023-04-17T07:08:11.083Z,13.18
2023-04-17T07:10:40.187Z,13.42
2023-04-17T07:13:09.070Z,13.79
2023-04-17T07:15:37.608Z,14.23
2023-04-17T07:18:06.491Z,14.64
2023-04-17T07:20:35.041Z,14.91
2023-04-17T07:23:03.624Z,15.19
2023-04-17T07:25:32.680Z,15.47
2023-04-17T07:28:03.241Z,15.68
2023-04-17T07:30:33.355Z,15.87
2023-04-17T07:33:02.310Z,15.96
2023-04-17T07:35:31.215Z,16.03
2023-04-17T07:38:04.005Z,15.96
2023-04-17T07:40:33.808Z,15.93
2023-04-17T07:43:02.181Z,15.96
2023-04-17T07:45:31.970Z,15.96
2023-04-17T07:48:00.737Z,15.94
2023-04-17T07:50:29.688Z,15.93
2023-04-17T07:52:58.568Z,15.88
2023-04-17T07:55:26.954Z,15.96
2023-04-17T07:57:55.429Z,16.03
2023-04-17T08:00:24.931Z,16.09
2023-04-17T08:02:53.937Z,15.99
2023-04-17T08:05:24.278Z,15.93
2023-04-17T08:07:52.850Z,15.87
2023-04-17T08:10:21.419Z,15.74
2023-04-17T08:12:50.319Z,15.72
2023-04-17T08:15:19.093Z,15.68
2023-04-17T08:17:47.756Z,15.56
2023-04-17T08:20:18.103Z,15.48
2023-04-17T08:22:46.690Z,15.43
2023-04-17T08:25:15.315Z,15.31
2023-04-17T08:27:43.961Z,15.20
2023-04-17T08:30:14.943Z,15.12
2023-04-17T08:32:46.513Z,14.95
2023-04-17T08:35:15.699Z,14.88
2023-04-17T08:37:47.028Z,14.86
2023-04-17T08:40:17.339Z,14.81
2023-04-17T08:42:48.213Z,14.65
2023-04-17T08:45:17.655Z,14.52
2023-04-17T08:47:46.455Z,14.48
2023-04-17T08:50:17.114Z,14.45
2023-04-17T08:52:47.612Z,14.42
2023-04-17T08:55:17.545Z,14.39
2023-04-17T08:58:04.863Z,14.37
2023-04-17T09:00:35.014Z,14.35
2023-04-17T09:03:05.121Z,14.30
2023-04-17T09:05:34.690Z,14.32
2023-04-17T09:08:10.192Z,14.30
2023-04-17T09:10:46.015Z,14.27
2023-04-17T09:13:19.719Z,14.25
2023-04-17T09:16:03.497Z,14.19
2023-04-17T09:18:32.734Z,14.14
2023-04-17T09:21:02.237Z,14.11
2023-04-17T09:23:53.469Z,14.15
2023-04-17T09:26:26.591Z,14.20
2023-04-17T09:29:07.949Z,14.15
2023-04-17T09:31:38.138Z,14.07
2023-04-17T09:34:08.153Z,14.05
2023-04-17T09:36:39.812Z,14.04
2023-04-17T09:39:24.240Z,14.01
2023-04-17T09:42:04.111Z,13.95
2023-04-17T09:44:32.595Z,13.92
2023-04-17T09:47:01.645Z,13.89
2023-04-17T09:49:53.550Z,13.91
2023-04-17T09:52:24.050Z,13.94
2023-04-17T09:54:54.009Z,13.98
2023-04-17T09:57:22.416Z,13.98
2023-04-17T09:59:53.018Z,13.96
2023-04-17T10:02:21.896Z,13.99
2023-04-17T10:04:50.439Z,14.02
2023-04-17T10:07:19.123Z,14.03
2023-04-17T10:09:47.732Z,14.04
2023-04-17T10:12:18.426Z,14.07
2023-04-17T10:14:48.899Z,14.11
2023-04-17T10:17:32.019Z,14.17
2023-04-17T10:20:17.856Z,14.25
2023-04-17T10:22:54.680Z,14.32
2023-04-17T10:25:27.038Z,14.38
2023-04-17T10:28:00.137Z,14.45
2023-04-17T10:30:52.464Z,14.48
2023-04-17T10:33:23.214Z,14.46
2023-04-17T10:35:51.674Z,14.48
2023-04-17T10:38:36.346Z,14.49
2023-04-17T10:41:09.462Z,14.52
2023-04-17T10:43:41.442Z,14.55
2023-04-17T10:46:13.547Z,14.61
2023-04-17T10:48:50.888Z,14.65
2023-04-17T10:51:22.706Z,14.69
2023-04-17T10:53:58.033Z,14.73
2023-04-17T10:56:38.201Z,14.79
2023-04-17T10:59:08.007Z,14.82
2023-04-17T11:01:48.864Z,14.82
2023-04-17T11:04:30.554Z,14.82
2023-04-17T11:06:59.772Z,14.84
2023-04-17T11:09:29.097Z,14.88
2023-04-17T11:12:03.760Z,14.90
2023-04-17T11:14:39.965Z,14.95
2023-04-17T11:17:09.417Z,15.02
2023-04-17T11:19:39.375Z,15.06
2023-04-17T11:22:09.848Z,15.11
2023-04-17T11:24:38.387Z,15.16
2023-04-17T11:27:06.964Z,15.20
2023-04-17T11:29:35.757Z,15.23
2023-04-17T11:32:04.443Z,15.23
2023-04-17T11:34:33.131Z,15.28
2023-04-17T11:37:01.888Z,15.34
2023-04-17T11:39:32.343Z,15.40
2023-04-17T11:42:02.672Z,15.42
2023-04-17T11:44:31.363Z,15.42
2023-04-17T11:47:00.039Z,15.44
2023-04-17T11:49:32.784Z,15.48
2023-04-17T11:52:02.247Z,15.50
2023-04-17T11:54:31.539Z,15.51
2023-04-17T11:57:01.717Z,15.52
2023-04-17T11:59:35.040Z,15.53
2023-04-17T12:02:07.712Z,15.54
2023-04-17T12:04:37.894Z,15.58
2023-04-17T12:07:07.338Z,15.62
2023-04-17T12:09:36.169Z,15.65
2023-04-17T12:12:05.876Z,15.66
2023-04-17T12:14:34.495Z,15.69
2023-04-17T12:17:02.823Z,15.70
2023-04-17T12:19:32.215Z,15.72
2023-04-17T12:22:01.009Z,15.74
2023-04-17T12:24:30.026Z,15.75
2023-04-17T12:27:02.072Z,15.77
2023-04-17T12:29:42.950Z,15.81
2023-04-17T12:32:13.210Z,15.84
2023-04-17T12:34:42.131Z,15.89
2023-04-17T12:37:11.335Z,15.91
2023-04-17T12:39:40.014Z,15.94
2023-04-17T12:42:08.820Z,15.98
2023-04-17T12:44:37.398Z,16.01
2023-04-17T12:47:05.985Z,16.02
2023-04-17T12:49:35.473Z,16.03
2023-04-17T12:52:04.288Z,16.06
2023-04-17T12:54:33.580Z,16.09
2023-04-17T12:57:04.197Z,16.10
2023-04-17T12:59:33.818Z,16.13
2023-04-17T13:02:03.115Z,16.17
2023-04-17T13:04:32.005Z,16.21
2023-04-17T13:07:00.995Z,16.23
2023-04-17T13:09:29.356Z,16.22
2023-04-17T13:11:58.175Z,16.21
2023-04-17T13:14:26.850Z,16.23
2023-04-17T13:16:55.906Z,16.24
2023-04-17T13:19:26.761Z,16.26
2023-04-17T13:21:55.355Z,16.27
2023-04-17T13:24:25.991Z,16.31
2023-04-17T13:26:58.385Z,16.31
2023-04-17T13:29:27.892Z,16.31
2023-04-17T13:31:56.845Z,16.33
2023-04-17T13:34:25.700Z,16.33
2023-04-17T13:36:55.929Z,16.31
2023-04-17T13:39:25.617Z,16.28
2023-04-17T13:41:54.399Z,16.23
2023-04-17T13:44:22.740Z,16.20
2023-04-17T13:46:51.901Z,16.18
2023-04-17T13:49:21.229Z,16.14
2023-04-17T13:51:49.713Z,16.11
2023-04-17T13:54:18.544Z,16.10
2023-04-17T13:56:46.886Z,16.08
2023-04-17T13:59:16.292Z,16.05
2023-04-17T14:01:44.679Z,16.04
2023-04-17T14:04:13.462Z,16.02
2023-04-17T14:06:44.399Z,16.01
2023-04-17T14:09:13.209Z,16.00
2023-04-17T14:11:42.082Z,15.99
2023-04-17T14:14:12.985Z,15.98
2023-04-17T14:16:41.591Z,15.96
2023-04-17T14:19:13.955Z,15.95
2023-04-17T14:21:43.561Z,15.92
2023-04-17T14:24:14.965Z,15.87
2023-04-17T14:26:45.181Z,15.83
2023-04-17T14:29:16.344Z,15.78
2023-04-17T14:31:47.546Z,15.74
2023-04-17T14:34:16.511Z,15.68
2023-04-17T14:36:45.107Z,15.64
2023-04-17T14:39:14.329Z,15.61
2023-04-17T14:41:43.747Z,15.58
2023-04-17T14:44:12.975Z,15.55
2023-04-17T14:46:41.946Z,15.51
2023-04-17T14:49:11.072Z,15.47
2023-04-17T14:51:40.105Z,15.44
2023-04-17T14:54:09.041Z,15.41
2023-04-17T14:56:38.909Z,15.37
2023-04-17T14:59:07.377Z,15.34
2023-04-17T15:01:36.949Z,15.31
2023-04-17T15:04:06.820Z,15.27
2023-04-17T15:06:36.492Z,15.24
2023-04-17T15:09:04.972Z,15.21
2023-04-17T15:11:33.759Z,15.18
2023-04-17T15:14:02.565Z,15.14
2023-04-17T15:16:31.441Z,15.11
2023-04-17T15:19:00.134Z,15.07
2023-04-17T15:21:28.611Z,15.05
2023-04-17T15:23:57.294Z,15.03
2023-04-17T15:26:27.557Z,15.01
2023-04-17T15:28:56.255Z,14.99
2023-04-17T15:31:26.290Z,14.96
2023-04-17T15:33:55.930Z,14.92
2023-04-17T15:36:29.351Z,14.90
2023-04-17T15:38:59.234Z,14.85
2023-04-17T15:41:28.943Z,14.82
2023-04-17T15:43:57.777Z,14.78
2023-04-17T15:46:27.378Z,14.74
2023-04-17T15:49:21.493Z,14.70
2023-04-17T15:51:47.424Z,14.67
2023-04-17T15:54:15.927Z,14.64
2023-04-17T15:56:47.492Z,14.61
2023-04-17T15:59:16.057Z,14.58
2023-04-17T16:01:46.399Z,14.54
2023-04-17T16:04:15.914Z,14.50
2023-04-17T16:06:44.396Z,14.45
2023-04-17T16:09:14.549Z,14.42
2023-04-17T16:11:43.312Z,14.38
2023-04-17T16:14:12.988Z,14.34
2023-04-17T16:16:43.012Z,14.30
2023-04-17T16:19:15.142Z,14.26
2023-04-17T16:21:46.071Z,14.22
2023-04-17T16:24:15.038Z,14.17
2023-04-17T16:26:44.364Z,14.11
2023-04-17T16:29:13.597Z,14.06
2023-04-17T16:31:42.946Z,14.01
2023-04-17T16:34:13.445Z,13.97
2023-04-17T16:36:45.225Z,13.92
2023-04-17T16:39:15.058Z,13.87
2023-04-17T16:41:44.394Z,13.82
2023-04-17T16:44:14.784Z,13.79
2023-04-17T16:47:02.870Z,13.75
2023-04-17T16:49:33.552Z,13.71
2023-04-17T16:52:04.902Z,13.68
2023-04-17T16:54:35.006Z,13.65
2023-04-17T16:57:06.201Z,13.62
2023-04-17T16:59:35.096Z,13.59
2023-04-17T17:02:04.164Z,13.57
2023-04-17T17:04:34.093Z,13.54
2023-04-17T17:07:03.407Z,13.50
2023-04-17T17:09:34.212Z,13.47
2023-04-17T17:12:04.603Z,13.43
2023-04-17T17:14:33.688Z,13.40
2023-04-17T17:17:02.586Z,13.37
2023-04-17T17:19:31.513Z,13.34
2023-04-17T17:22:00.979Z,13.31
2023-04-17T17:24:31.367Z,13.28
2023-04-17T17:27:02.002Z,13.24
2023-04-17T17:29:30.944Z,13.20
2023-04-17T17:32:00.706Z,13.16
2023-04-17T17:37:05.507Z,13.09
2023-04-17T17:39:34.574Z,13.05
2023-04-17T17:42:09.379Z,13.03
2023-04-17T17:44:38.943Z,13.00
2023-04-17T17:47:17.201Z,12.96
2023-04-17T17:49:46.453Z,12.95
2023-04-17T17:52:15.489Z,12.92
2023-04-17T17:54:46.834Z,12.90
2023-04-17T17:57:16.703Z,12.88
2023-04-17T17:59:46.206Z,12.87
2023-04-17T18:02:15.650Z,12.85
2023-04-17T18:04:44.737Z,12.85
2023-04-17T18:07:13.863Z,12.84
2023-04-17T18:09:42.742Z,12.84
2023-04-17T18:12:11.437Z,12.83
2023-04-17T18:14:40.324Z,12.82
2023-04-17T18:17:09.222Z,12.81
2023-04-17T18:19:41.217Z,12.81
2023-04-17T18:22:09.751Z,12.79
2023-04-17T18:24:38.963Z,12.79
2023-04-17T18:27:09.066Z,12.76
2023-04-17T18:29:40.389Z,12.75
2023-04-17T18:32:11.468Z,12.72
2023-04-17T18:34:40.213Z,12.69
2023-04-17T18:37:11.913Z,12.67
2023-04-17T18:39:42.926Z,12.62
2023-04-17T18:42:12.966Z,12.60
2023-04-17T18:44:44.283Z,12.57
2023-04-17T18:47:13.556Z,12.55
2023-04-17T18:49:43.415Z,12.53
2023-04-17T18:52:14.884Z,12.51
2023-04-17T18:54:44.681Z,12.51
2023-04-17T18:57:15.797Z,12.50
2023-04-17T18:59:44.621Z,12.50
2023-04-17T19:02:13.459Z,12.49
2023-04-17T19:04:43.124Z,12.49
2023-04-17T19:07:12.631Z,12.49
2023-04-17T19:09:41.546Z,12.47
2023-04-17T19:12:12.090Z,12.49
2023-04-17T19:14:41.232Z,12.48
2023-04-17T19:17:10.655Z,12.48
2023-04-17T19:19:40.247Z,12.48
2023-04-17T19:22:09.239Z,12.46
2023-04-17T19:24:38.132Z,12.42
2023-04-17T19:27:06.873Z,12.39
2023-04-17T19:29:36.477Z,12.36
2023-04-17T19:32:05.456Z,12.33
2023-04-17T19:34:34.847Z,12.29
2023-04-17T19:37:03.412Z,12.26
2023-04-17T19:39:33.210Z,12.23
2023-04-17T19:42:03.334Z,12.20
2023-04-17T19:44:32.235Z,12.16
2023-04-17T19:47:01.120Z,12.13
2023-04-17T19:49:29.891Z,12.09
2023-04-17T19:52:01.099Z,12.07
2023-04-17T19:54:29.733Z,12.03
2023-04-17T19:56:58.302Z,12.01
2023-04-17T19:59:27.204Z,11.99
2023-04-17T20:01:56.052Z,11.97
2023-04-17T20:04:24.964Z,11.94
2023-04-17T20:06:53.560Z,11.92
2023-04-17T20:09:22.245Z,11.89
2023-04-17T20:11:51.027Z,11.86
2023-04-17T20:14:20.090Z,11.83
2023-04-17T20:16:50.326Z,11.80
2023-04-17T20:19:18.962Z,11.78
2023-04-17T20:21:47.925Z,11.74
2023-04-17T20:24:16.512Z,11.71
2023-04-17T20:26:45.299Z,11.67
2023-04-17T20:29:14.183Z,11.64
2023-04-17T20:31:43.461Z,11.60
2023-04-17T20:34:12.176Z,11.57
2023-04-17T20:36:40.857Z,11.53
2023-04-17T20:39:11.104Z,11.49
2023-04-17T20:41:40.720Z,11.47
2023-04-17T20:44:09.072Z,11.43
2023-04-17T20:46:38.576Z,11.39
2023-04-17T20:49:07.153Z,11.36
2023-04-17T20:51:36.150Z,11.32
2023-04-17T20:54:04.835Z,11.29
2023-04-17T20:56:33.635Z,11.26
2023-04-17T20:59:02.927Z,11.22
2023-04-17T21:01:31.536Z,11.18
2023-04-17T21:04:00.258Z,11.15
2023-04-17T21:06:29.391Z,11.12
2023-04-17T21:08:58.506Z,11.09
2023-04-17T21:11:26.856Z,11.07
2023-04-17T21:13:56.052Z,11.03
2023-04-17T21:16:25.402Z,10.99
2023-04-17T21:18:53.939Z,10.97
2023-04-17T21:21:22.665Z,10.94
2023-04-17T21:23:52.271Z,10.93
2023-04-17T21:26:21.834Z,10.91
2023-04-17T21:28:50.218Z,10.87
2023-04-17T21:31:18.735Z,10.83
2023-04-17T21:33:47.485Z,10.81
2023-04-17T21:36:16.175Z,10.78
2023-04-17T21:38:44.547Z,10.75
2023-04-17T21:41:13.027Z,10.72
2023-04-17T21:43:41.616Z,10.69
2023-04-17T21:46:11.604Z,10.66
2023-04-17T21:48:40.221Z,10.63
2023-04-17T21:51:09.747Z,10.61
2023-04-17T21:53:38.821Z,10.58
2023-04-17T21:56:08.525Z,10.55
2023-04-17T21:58:37.720Z,10.52
2023-04-17T22:01:06.482Z,10.48
2023-04-17T22:03:36.117Z,10.46
2023-04-17T22:06:05.113Z,10.43
2023-04-17T22:08:33.500Z,10.41
2023-04-17T22:11:02.021Z,10.40
2023-04-17T22:13:31.889Z,10.37
2023-04-17T22:16:00.492Z,10.35
2023-04-17T22:18:29.360Z,10.33
2023-04-17T22:20:58.159Z,10.31
2023-04-17T22:23:27.042Z,10.29
2023-04-17T22:25:55.533Z,10.28
2023-04-17T22:28:24.102Z,10.26
2023-04-17T22:30:52.715Z,10.25
2023-04-17T22:33:21.505Z,10.24
2023-04-17T22:35:50.374Z,10.24
2023-04-17T22:38:20.072Z,10.24
2023-04-17T22:40:49.010Z,10.24
2023-04-17T22:43:17.474Z,10.23
2023-04-17T22:45:46.204Z,10.23
2023-04-17T22:48:16.246Z,10.23
2023-04-17T22:50:45.852Z,10.23
2023-04-17T22:53:14.234Z,10.24
2023-04-17T22:55:42.712Z,10.24
2023-04-17T22:58:11.702Z,10.23
2023-04-17T23:00:40.398Z,10.23
2023-04-17T23:03:09.561Z,10.24
2023-04-17T23:05:38.373Z,10.23
2023-04-17T23:08:07.068Z,10.23
2023-04-17T23:10:35.845Z,10.22
2023-04-17T23:13:04.429Z,10.21
2023-04-17T23:15:33.735Z,10.20
2023-04-17T23:18:02.455Z,10.19
2023-04-17T23:20:30.999Z,10.17
2023-04-17T23:22:59.681Z,10.16
2023-04-17T23:25:28.387Z,10.15
2023-04-17T23:27:57.175Z,10.13
2023-04-17T23:30:25.841Z,10.13
2023-04-17T23:32:55.827Z,10.12
2023-04-17T23:35:24.675Z,10.12
2023-04-17T23:37:53.055Z,10.10
2023-04-17T23:40:21.507Z,10.09
2023-04-17T23:42:50.718Z,10.09
2023-04-17T23:45:19.300Z,10.07
2023-04-17T23:47:48.050Z,10.06
2023-04-17T23:50:16.586Z,10.04
2023-04-17T23:52:45.376Z,10.03
2023-04-17T23:55:13.631Z,10.02
2023-04-17T23:57:42.110Z,9.99
